Time;durP1;ratioP1;P1;durP2;ratioP2;P2;SDS_P1;SDS_P2;PMS_P1;PMS_P2;Temp;Humidity;BMP_temperature;BMP_pressure;BME280_temperature;BME280_humidity;BME280_pressure;Samples;Min_cycle;Max_cycle;Signal;HPM_P1;HPM_P2
2024/01/02 00:00:02;;;;;;;12.13;3.80;;;5.80;99.90;;;;;;5038674;28;20073;-77
2024/01/02 00:02:28;;;;;;;12.43;4.00;;;5.80;99.90;;;;;;5047786;28;20049;-78
2024/01/02 00:04:54;;;;;;;10.07;3.83;;;5.90;99.90;;;;;;5047373;28;20046;-77
2024/01/02 00:07:19;;;;;;;10.83;4.23;;;5.90;99.90;;;;;;5038749;28;20054;-77
2024/01/02 00:09:45;;;;;;;10.37;4.23;;;5.90;99.90;;;;;;5051215;28;20052;-77
2024/01/02 00:12:10;;;;;;;13.10;4.07;;;5.90;99.90;;;;;;5021595;28;20069;-78
2024/01/02 00:14:36;;;;;;;8.83;3.97;;;5.90;99.90;;;;;;5030026;28;20492;-77
2024/01/02 00:17:02;;;;;;;10.30;3.87;;;5.90;99.90;;;;;;5030922;28;20050;-75
2024/01/02 00:19:28;;;;;;;13.57;4.47;;;5.90;99.90;;;;;;5025082;28;20084;-77
2024/01/02 00:21:53;;;;;;;13.43;3.90;;;5.90;99.90;;;;;;5027450;28;20440;-77
2024/01/02 00:24:19;;;;;;;12.83;3.80;;;6.00;99.90;;;;;;5044670;28;20087;-76
2024/01/02 00:26:45;;;;;;;13.73;3.93;;;5.90;99.90;;;;;;5041198;28;20047;-77
2024/01/02 00:29:10;;;;;;;12.37;4.00;;;6.00;99.90;;;;;;5021077;28;20034;-77
2024/01/02 00:31:36;;;;;;;10.53;3.40;;;5.90;99.90;;;;;;5049251;28;20127;-77
2024/01/02 00:34:02;;;;;;;10.90;3.77;;;6.00;99.90;;;;;;5028616;28;20048;-77
2024/01/02 00:36:27;;;;;;;10.03;3.23;;;6.00;99.90;;;;;;5033577;28;20076;-77
2024/01/02 00:38:53;;;;;;;12.07;3.83;;;6.00;99.90;;;;;;5039098;28;20061;-77
2024/01/02 00:41:19;;;;;;;10.77;3.30;;;6.00;99.90;;;;;;5046153;28;20378;-77
2024/01/02 00:43:44;;;;;;;11.23;3.37;;;6.00;99.90;;;;;;5027128;28;20473;-77
2024/01/02 00:46:10;;;;;;;9.67;3.47;;;6.00;99.90;;;;;;5015880;28;20179;-77
2024/01/02 00:48:36;;;;;;;9.53;3.00;;;6.00;99.90;;;;;;5025773;28;20044;-77
2024/01/02 00:51:02;;;;;;;6.67;2.90;;;6.10;99.90;;;;;;5041361;28;20042;-77
2024/01/02 00:53:27;;;;;;;9.57;3.13;;;6.00;99.90;;;;;;5046282;28;20148;-76
2024/01/02 00:55:53;;;;;;;7.70;2.90;;;6.00;99.90;;;;;;5035792;28;20046;-77
2024/01/02 00:58:19;;;;;;;9.87;2.80;;;6.00;99.90;;;;;;5016894;28;20041;-77
2024/01/02 01:00:45;;;;;;;8.83;2.80;;;6.00;99.90;;;;;;5020904;28;20093;-77
2024/01/02 01:03:11;;;;;;;10.70;2.77;;;6.00;99.90;;;;;;5008384;28;20528;-76
2024/01/02 01:05:36;;;;;;;7.03;2.63;;;6.00;99.90;;;;;;5031845;28;20052;-77
2024/01/02 01:08:03;;;;;;;10.60;2.80;;;6.00;99.90;;;;;;5041750;28;20045;-77
2024/01/02 01:10:29;;;;;;;7.67;2.40;;;6.00;99.90;;;;;;5043669;28;20324;-77
2024/01/02 01:12:54;;;;;;;10.77;3.07;;;6.00;99.90;;;;;;5047053;28;20053;-78
2024/01/02 01:15:20;;;;;;;7.50;2.80;;;6.00;99.90;;;;;;5042694;28;20128;-77
2024/01/02 01:17:45;;;;;;;7.53;2.77;;;6.10;99.90;;;;;;5042106;28;20045;-78
2024/01/02 01:20:11;;;;;;;10.53;3.00;;;6.10;99.90;;;;;;5049734;28;20049;-77
2024/01/02 01:22:37;;;;;;;11.40;3.27;;;6.10;99.90;;;;;;5038601;28;20080;-78
2024/01/02 01:25:03;;;;;;;9.00;2.80;;;6.10;99.90;;;;;;5038895;28;20045;-77
2024/01/02 01:27:29;;;;;;;13.80;3.47;;;6.10;99.90;;;;;;5049027;28;20092;-77
2024/01/02 01:29:55;;;;;;;10.37;3.23;;;6.20;99.90;;;;;;5038295;28;20131;-76
2024/01/02 01:32:20;;;;;;;11.17;3.63;;;6.10;99.90;;;;;;5030750;28;20034;-76
2024/01/02 01:34:46;;;;;;;10.70;3.63;;;6.20;99.90;;;;;;5043167;28;20049;-76
2024/01/02 01:37:12;;;;;;;13.33;3.67;;;6.20;99.90;;;;;;5033291;28;20319;-76
2024/01/02 01:39:39;;;;;;;13.57;3.80;;;6.20;99.90;;;;;;5050608;28;20756;-76
2024/01/02 01:42:05;;;;;;;13.00;4.07;;;6.30;99.90;;;;;;5024018;28;20083;-76
2024/01/02 01:44:31;;;;;;;10.20;3.73;;;6.20;99.90;;;;;;5045921;28;20041;-76
2024/01/02 01:46:57;;;;;;;8.73;3.77;;;6.30;99.90;;;;;;5028509;28;20084;-76
2024/01/02 01:49:22;;;;;;;14.53;4.50;;;6.30;99.90;;;;;;5020509;28;20054;-75
2024/01/02 01:51:51;;;;;;;17.03;4.97;;;6.30;99.90;;;;;;5041948;28;20053;-76
2024/01/02 01:54:18;;;;;;;14.47;4.47;;;6.30;99.90;;;;;;5049484;28;20059;-75
2024/01/02 01:56:44;;;;;;;13.70;5.50;;;6.30;99.90;;;;;;5038776;28;20053;-77
2024/01/02 01:59:12;;;;;;;11.57;5.37;;;6.30;99.90;;;;;;5022593;28;20544;-76
2024/01/02 02:01:38;;;;;;;13.30;4.70;;;6.30;99.90;;;;;;5020812;28;20584;-76
2024/01/02 02:04:05;;;;;;;10.77;4.97;;;6.30;99.90;;;;;;5046099;28;20144;-76
2024/01/02 02:06:31;;;;;;;14.80;6.03;;;6.40;99.90;;;;;;5039550;28;20164;-76
2024/01/02 02:08:57;;;;;;;12.80;5.80;;;6.30;99.90;;;;;;5045343;28;20081;-76
2024/01/02 02:11:23;;;;;;;15.23;6.57;;;6.40;99.90;;;;;;5022548;28;20045;-77
2024/01/02 02:13:50;;;;;;;13.60;6.60;;;6.40;99.90;;;;;;5044927;28;20049;-77
2024/01/02 02:16:16;;;;;;;15.53;6.87;;;6.40;99.90;;;;;;5021723;28;20061;-77
2024/01/02 02:18:42;;;;;;;14.97;6.40;;;6.40;99.90;;;;;;5025783;28;20083;-77
2024/01/02 02:21:07;;;;;;;14.50;6.80;;;6.50;99.90;;;;;;5049774;28;20064;-78
2024/01/02 02:23:33;;;;;;;14.67;6.80;;;6.40;99.90;;;;;;5027678;28;20052;-77
2024/01/02 02:25:59;;;;;;;15.90;6.63;;;6.50;99.90;;;;;;5041937;28;20053;-77
2024/01/02 02:28:25;;;;;;;14.40;6.63;;;6.50;99.90;;;;;;5021513;28;20457;-74
2024/01/02 02:30:51;;;;;;;19.90;6.80;;;6.50;99.90;;;;;;5045271;28;20164;-79
2024/01/02 02:33:16;;;;;;;17.00;7.37;;;6.50;99.90;;;;;;5016701;28;20060;-78
2024/01/02 02:35:42;;;;;;;17.93;7.63;;;6.50;99.90;;;;;;5031817;28;20063;-78
2024/01/02 02:38:08;;;;;;;16.20;7.13;;;6.50;99.90;;;;;;5023467;28;20071;-78
2024/01/02 02:40:34;;;;;;;15.57;7.00;;;6.60;99.90;;;;;;5031004;28;20143;-78
2024/01/02 02:42:59;;;;;;;12.37;6.80;;;6.50;99.90;;;;;;5042308;28;20183;-78
2024/01/02 02:45:27;;;;;;;15.53;6.63;;;6.60;99.90;;;;;;5038651;28;20409;-77
2024/01/02 02:47:53;;;;;;;13.67;6.77;;;6.50;99.90;;;;;;5023344;28;20072;-77
2024/01/02 02:50:19;;;;;;;15.07;6.93;;;6.60;99.90;;;;;;5030157;28;20105;-77
2024/01/02 02:52:45;;;;;;;14.83;7.60;;;6.50;99.90;;;;;;5040498;28;20093;-78
2024/01/02 02:55:11;;;;;;;16.93;6.50;;;6.50;99.90;;;;;;5042342;28;20132;-75
2024/01/02 02:57:36;;;;;;;15.30;7.17;;;6.50;99.90;;;;;;5035795;28;20049;-77
2024/01/02 03:00:04;;;;;;;16.67;7.10;;;6.50;99.90;;;;;;5037080;28;20045;-77
2024/01/02 03:02:30;;;;;;;13.07;7.00;;;6.50;99.90;;;;;;5045371;28;20520;-77
2024/01/02 03:04:56;;;;;;;12.80;6.67;;;6.60;99.90;;;;;;5037843;28;20048;-78
2024/01/02 03:07:21;;;;;;;16.20;6.80;;;6.60;99.90;;;;;;5049454;28;20040;-78
2024/01/02 03:09:47;;;;;;;14.57;6.87;;;6.60;99.90;;;;;;5042238;28;20045;-77
2024/01/02 03:12:13;;;;;;;15.93;6.37;;;6.60;99.90;;;;;;5043418;28;20037;-77
2024/01/02 03:14:39;;;;;;;10.33;5.87;;;6.60;99.90;;;;;;5050368;28;20062;-77
2024/01/02 03:17:04;;;;;;;13.83;6.27;;;6.60;99.90;;;;;;5006502;28;20048;-78
2024/01/02 03:19:31;;;;;;;14.13;6.67;;;6.60;99.90;;;;;;5046367;28;20045;-78
2024/01/02 03:21:57;;;;;;;13.33;6.30;;;6.60;99.90;;;;;;5040562;28;20142;-77
2024/01/02 03:24:22;;;;;;;11.23;5.50;;;6.60;99.90;;;;;;5043894;28;20057;-77
2024/01/02 03:26:48;;;;;;;14.17;5.77;;;6.60;99.90;;;;;;5008303;28;20049;-79
2024/01/02 03:29:16;;;;;;;13.37;5.83;;;6.60;99.90;;;;;;5026237;28;20062;-78
2024/01/02 03:31:43;;;;;;;13.87;6.43;;;6.60;99.90;;;;;;5044046;28;20108;-78
2024/01/02 03:34:09;;;;;;;13.43;6.07;;;6.60;99.90;;;;;;5044254;28;20509;-79
2024/01/02 03:36:34;;;;;;;11.47;5.70;;;6.60;99.90;;;;;;5016977;28;20117;-78
2024/01/02 03:39:02;;;;;;;12.90;5.87;;;6.60;99.90;;;;;;5046137;28;20732;-79
2024/01/02 03:41:28;;;;;;;12.47;6.03;;;6.60;99.90;;;;;;5045630;28;20127;-79
2024/01/02 03:43:53;;;;;;;11.40;5.83;;;6.60;99.90;;;;;;5037847;28;20084;-79
2024/01/02 03:46:19;;;;;;;11.50;5.70;;;6.60;99.90;;;;;;5052504;28;20045;-79
2024/01/02 03:48:45;;;;;;;13.53;5.77;;;6.60;99.90;;;;;;5038559;28;20044;-78
2024/01/02 03:51:11;;;;;;;13.10;5.77;;;6.60;99.90;;;;;;5022539;28;20567;-79
2024/01/02 03:53:37;;;;;;;11.93;5.43;;;6.60;99.90;;;;;;5050191;28;20049;-78
2024/01/02 03:56:04;;;;;;;12.93;5.47;;;6.60;99.90;;;;;;5020324;28;20053;-79
2024/01/02 03:58:33;;;;;;;9.80;5.20;;;6.60;99.90;;;;;;5023806;28;20610;-78
2024/01/02 04:00:58;;;;;;;12.47;5.17;;;6.50;99.90;;;;;;5027954;28;20092;-79
2024/01/02 04:03:24;;;;;;;12.87;5.50;;;6.60;99.90;;;;;;5047579;28;20393;-78
2024/01/02 04:05:50;;;;;;;8.40;4.80;;;6.60;99.90;;;;;;5048533;28;20049;-78
2024/01/02 04:08:16;;;;;;;15.13;5.00;;;6.60;99.90;;;;;;5047911;28;20049;-78
2024/01/02 04:10:42;;;;;;;9.27;4.87;;;6.60;99.90;;;;;;5050495;28;20045;-78
2024/01/02 04:13:09;;;;;;;10.50;4.70;;;6.60;99.90;;;;;;5045665;28;20069;-79
2024/01/02 04:15:35;;;;;;;6.70;5.07;;;6.60;99.90;;;;;;5049914;28;20049;-80
2024/01/02 04:18:01;;;;;;;12.00;4.90;;;6.60;99.90;;;;;;5044679;28;20044;-80
2024/01/02 04:20:27;;;;;;;10.33;4.27;;;6.70;99.90;;;;;;5029427;28;20084;-79
2024/01/02 04:22:54;;;;;;;11.67;4.43;;;6.70;99.90;;;;;;5041492;28;20050;-79
2024/01/02 04:25:24;;;;;;;11.87;4.77;;;6.60;99.90;;;;;;5048043;28;20321;-80
2024/01/02 04:27:54;;;;;;;9.63;5.00;;;6.60;99.90;;;;;;5051536;28;20045;-79
2024/01/02 04:30:20;;;;;;;10.63;5.13;;;6.60;99.90;;;;;;5048542;28;20053;-79
2024/01/02 04:32:46;;;;;;;11.93;5.00;;;6.60;99.90;;;;;;5023547;28;20526;-79
2024/01/02 04:35:12;;;;;;;11.20;4.73;;;6.60;99.90;;;;;;5042654;28;20041;-80
2024/01/02 04:37:37;;;;;;;9.03;4.70;;;6.60;99.90;;;;;;5044190;28;20044;-79
2024/01/02 04:40:06;;;;;;;9.47;4.27;;;6.70;99.90;;;;;;5041613;28;20068;-78
2024/01/02 04:42:36;;;;;;;8.13;4.20;;;6.60;99.90;;;;;;5035957;28;20044;-80
2024/01/02 04:45:03;;;;;;;8.10;4.40;;;6.70;99.90;;;;;;5028123;28;20057;-78
2024/01/02 04:47:29;;;;;;;9.23;4.17;;;6.60;99.90;;;;;;5035434;28;20038;-79
2024/01/02 04:49:55;;;;;;;9.27;4.10;;;6.70;99.90;;;;;;5008900;28;20844;-78
2024/01/02 04:52:21;;;;;;;6.03;3.63;;;6.70;99.90;;;;;;5013287;28;20091;-79
2024/01/02 04:54:48;;;;;;;10.50;3.80;;;6.60;99.90;;;;;;5036812;28;20051;-79
2024/01/02 04:57:14;;;;;;;7.80;3.63;;;6.60;99.90;;;;;;5031211;28;20037;-79
2024/01/02 04:59:39;;;;;;;7.77;3.63;;;6.60;99.90;;;;;;5032888;28;20045;-80
2024/01/02 05:02:05;;;;;;;6.83;3.77;;;6.60;99.90;;;;;;5048732;28;20048;-79
2024/01/02 05:04:31;;;;;;;8.40;3.30;;;6.60;99.90;;;;;;5037900;28;20034;-79
2024/01/02 05:06:57;;;;;;;5.13;3.27;;;6.60;99.90;;;;;;5032430;28;20433;-79
2024/01/02 05:09:22;;;;;;;6.80;3.30;;;6.70;99.90;;;;;;5045229;28;20088;-80
2024/01/02 05:11:48;;;;;;;7.47;3.20;;;6.60;99.90;;;;;;5044172;28;20083;-80
2024/01/02 05:14:15;;;;;;;5.30;3.20;;;6.70;99.90;;;;;;5043408;28;20065;-81
2024/01/02 05:16:41;;;;;;;4.37;2.93;;;6.60;99.90;;;;;;5045627;28;20053;-81
2024/01/02 05:19:06;;;;;;;5.77;2.90;;;6.60;99.90;;;;;;5029326;28;20046;-81
2024/01/02 05:21:32;;;;;;;5.40;2.97;;;6.60;99.90;;;;;;5035024;28;20057;-80
2024/01/02 05:23:58;;;;;;;6.83;3.37;;;6.60;99.90;;;;;;5045067;28;20041;-81
2024/01/02 05:26:23;;;;;;;7.20;3.63;;;6.60;99.90;;;;;;5044197;28;20076;-81
2024/01/02 05:28:49;;;;;;;5.20;3.10;;;6.70;99.90;;;;;;5045114;28;20048;-81
2024/01/02 05:31:15;;;;;;;7.53;3.20;;;6.60;99.90;;;;;;5043999;28;20113;-80
2024/01/02 05:33:40;;;;;;;7.50;3.70;;;6.70;99.90;;;;;;5020747;28;20053;-81
2024/01/02 05:36:06;;;;;;;6.00;3.13;;;6.70;99.90;;;;;;5049382;28;20128;-81
2024/01/02 05:38:32;;;;;;;4.90;3.10;;;6.70;99.90;;;;;;5040568;28;20068;-80
2024/01/02 05:40:58;;;;;;;5.93;2.90;;;6.70;99.90;;;;;;5027731;28;20041;-80
2024/01/02 05:43:23;;;;;;;3.57;2.73;;;6.70;99.90;;;;;;5050775;28;20049;-81
2024/01/02 05:45:49;;;;;;;6.20;2.67;;;6.60;99.90;;;;;;5038991;28;20447;-81
2024/01/02 05:48:15;;;;;;;5.40;2.80;;;6.60;99.90;;;;;;5028185;28;20103;-81
2024/01/02 05:50:40;;;;;;;2.50;2.30;;;6.60;99.90;;;;;;5024512;28;20053;-81
2024/01/02 05:53:09;;;;;;;3.47;2.40;;;6.60;99.90;;;;;;5039359;28;20072;-81
2024/01/02 05:55:35;;;;;;;4.23;2.57;;;6.70;99.90;;;;;;5045363;28;20130;-82
2024/01/02 05:58:00;;;;;;;5.13;2.70;;;6.60;99.90;;;;;;5035480;28;20045;-82
2024/01/02 06:00:26;;;;;;;6.07;2.80;;;6.60;99.90;;;;;;5026886;28;20049;-81
2024/01/02 06:02:53;;;;;;;3.87;2.80;;;6.60;99.90;;;;;;5041732;28;20041;-80
2024/01/02 06:05:18;;;;;;;3.23;2.67;;;6.60;99.90;;;;;;5045123;28;20060;-80
2024/01/02 06:07:44;;;;;;;4.17;2.50;;;6.70;99.90;;;;;;5008472;28;20048;-81
2024/01/02 06:10:10;;;;;;;4.27;2.87;;;6.70;99.90;;;;;;5040832;28;20120;-80
2024/01/02 06:12:36;;;;;;;4.90;2.90;;;6.60;99.90;;;;;;5037541;28;20040;-81
2024/01/02 06:15:02;;;;;;;3.83;2.70;;;6.60;99.90;;;;;;5052146;28;20049;-80
2024/01/02 06:17:28;;;;;;;3.20;2.80;;;6.70;99.90;;;;;;5039092;28;20076;-80
2024/01/02 06:19:54;;;;;;;4.77;2.90;;;6.60;99.90;;;;;;5044674;28;20053;-80
2024/01/02 06:22:20;;;;;;;3.80;2.40;;;6.70;99.90;;;;;;5017374;28;20048;-80
2024/01/02 06:24:45;;;;;;;3.33;2.30;;;6.70;99.90;;;;;;5043070;28;20106;-80
2024/01/02 06:27:11;;;;;;;3.27;2.13;;;6.70;99.90;;;;;;5033994;28;20045;-80
2024/01/02 06:29:36;;;;;;;3.63;2.47;;;6.70;99.90;;;;;;5037999;28;20049;-79
2024/01/02 06:32:03;;;;;;;3.97;2.53;;;6.70;99.90;;;;;;5046510;28;20045;-80
2024/01/02 06:34:29;;;;;;;3.00;1.70;;;6.60;99.90;;;;;;5021597;28;20093;-80
2024/01/02 06:36:55;;;;;;;1.63;1.33;;;6.70;99.90;;;;;;5049192;28;20088;-81
2024/01/02 06:39:20;;;;;;;2.33;1.70;;;6.70;99.90;;;;;;5044081;28;20045;-79
2024/01/02 06:41:46;;;;;;;2.37;1.63;;;6.70;99.90;;;;;;5015044;28;20055;-81
2024/01/02 06:44:12;;;;;;;1.33;1.23;;;6.70;99.90;;;;;;5031675;28;20110;-81
2024/01/02 06:46:38;;;;;;;1.93;1.60;;;6.80;99.90;;;;;;5015997;28;20068;-80
2024/01/02 06:49:04;;;;;;;1.50;1.40;;;6.80;99.90;;;;;;5048317;28;20077;-80
2024/01/02 06:51:30;;;;;;;2.70;1.50;;;6.80;99.90;;;;;;5043545;28;20550;-81
2024/01/02 06:53:56;;;;;;;2.07;1.37;;;6.80;99.90;;;;;;5006081;28;20041;-79
2024/01/02 06:56:21;;;;;;;1.40;1.30;;;6.80;99.90;;;;;;5041224;28;20114;-80
2024/01/02 06:58:47;;;;;;;1.50;1.40;;;6.80;99.90;;;;;;5037044;28;20406;-80
2024/01/02 07:01:14;;;;;;;1.50;1.20;;;6.80;99.90;;;;;;5041790;28;20052;-81
2024/01/02 07:03:40;;;;;;;1.33;1.10;;;6.90;99.90;;;;;;5018275;28;20045;-80
2024/01/02 07:06:06;;;;;;;1.20;1.03;;;6.90;99.90;;;;;;5036183;28;20068;-81
2024/01/02 07:08:32;;;;;;;1.10;0.97;;;6.90;99.90;;;;;;5017739;28;20049;-80
2024/01/02 07:10:57;;;;;;;1.40;1.10;;;6.90;99.90;;;;;;5050172;28;20083;-81
2024/01/02 07:13:23;;;;;;;1.40;1.30;;;6.90;99.90;;;;;;5049245;28;20155;-81
2024/01/02 07:15:49;;;;;;;2.40;1.00;;;7.00;99.90;;;;;;5036470;28;20041;-81
2024/01/02 07:18:15;;;;;;;2.13;1.20;;;7.00;99.90;;;;;;5045988;28;20091;-80
2024/01/02 07:20:41;;;;;;;1.40;1.30;;;7.00;99.90;;;;;;5023117;28;20057;-80
2024/01/02 07:23:06;;;;;;;1.83;1.30;;;7.00;99.90;;;;;;5034708;28;20057;-80
2024/01/02 07:25:32;;;;;;;1.53;1.30;;;7.00;99.90;;;;;;5027289;28;20045;-80
2024/01/02 07:27:58;;;;;;;1.43;1.33;;;7.00;99.90;;;;;;5039038;28;20057;-79
2024/01/02 07:30:24;;;;;;;1.90;1.80;;;7.00;99.90;;;;;;5040730;28;20065;-80
2024/01/02 07:32:49;;;;;;;1.60;1.50;;;7.10;99.90;;;;;;5015826;28;20562;-80
2024/01/02 07:35:15;;;;;;;1.57;1.47;;;7.10;99.90;;;;;;5047441;28;20041;-80
2024/01/02 07:37:41;;;;;;;1.60;1.50;;;7.10;99.90;;;;;;5036280;28;20046;-80
2024/01/02 07:40:07;;;;;;;1.80;1.70;;;7.10;99.90;;;;;;5038017;28;20081;-81
2024/01/02 07:42:33;;;;;;;3.00;2.20;;;7.20;99.90;;;;;;5049174;28;20057;-80
2024/01/02 07:44:59;;;;;;;2.73;2.53;;;7.20;99.90;;;;;;5024632;28;20041;-80
2024/01/02 07:47:25;;;;;;;2.80;2.57;;;7.20;99.90;;;;;;5029240;28;20049;-80
2024/01/02 07:49:51;;;;;;;3.60;3.07;;;7.20;99.90;;;;;;5043973;28;20100;-80
2024/01/02 07:52:18;;;;;;;3.87;3.40;;;7.20;99.90;;;;;;5046093;28;20068;-81
2024/01/02 07:54:44;;;;;;;3.70;3.40;;;7.30;99.90;;;;;;5043776;28;20045;-81
2024/01/02 07:57:10;;;;;;;4.03;3.63;;;7.30;99.90;;;;;;5015785;28;20037;-81
2024/01/02 07:59:36;;;;;;;4.40;4.00;;;7.30;99.90;;;;;;5015844;28;20045;-80
2024/01/02 08:02:02;;;;;;;4.97;4.47;;;7.30;99.90;;;;;;5018364;28;20102;-80
2024/01/02 08:04:29;;;;;;;4.63;4.03;;;7.40;99.90;;;;;;5038374;28;20072;-83
2024/01/02 08:06:57;;;;;;;4.90;4.40;;;7.40;99.90;;;;;;5036941;28;20064;-85
2024/01/02 08:09:24;;;;;;;4.80;4.40;;;7.40;99.90;;;;;;5031474;28;20056;-84
2024/01/02 08:11:50;;;;;;;5.60;4.70;;;7.50;99.90;;;;;;5024297;28;20064;-86
2024/01/02 08:14:16;;;;;;;5.80;5.07;;;7.50;99.90;;;;;;5017533;28;20054;-87
2024/01/02 08:16:41;;;;;;;7.43;6.13;;;7.50;99.90;;;;;;5030718;28;20137;-81
2024/01/02 08:19:07;;;;;;;7.80;5.57;;;7.50;99.90;;;;;;5040982;28;20077;-81
2024/01/02 08:21:34;;;;;;;5.97;5.00;;;7.50;99.90;;;;;;5036872;28;20050;-79
2024/01/02 08:24:00;;;;;;;6.87;5.67;;;7.60;99.90;;;;;;5034238;28;20068;-80
2024/01/02 08:26:25;;;;;;;6.70;5.20;;;7.60;99.90;;;;;;5028885;28;20049;-81
2024/01/02 08:28:51;;;;;;;7.30;5.80;;;7.60;99.90;;;;;;5041872;28;20045;-81
2024/01/02 08:31:17;;;;;;;8.27;5.40;;;7.70;99.90;;;;;;5038475;28;20042;-80
2024/01/02 08:33:43;;;;;;;7.60;5.87;;;7.70;99.90;;;;;;5036640;28;20041;-80
2024/01/02 08:36:11;;;;;;;9.67;6.27;;;7.80;99.90;;;;;;5039911;28;20378;-80
2024/01/02 08:38:37;;;;;;;12.07;6.47;;;7.90;99.90;;;;;;5035795;28;20037;-80
2024/01/02 08:41:03;;;;;;;14.00;7.07;;;8.00;99.90;;;;;;5042873;28;20131;-78
2024/01/02 08:43:29;;;;;;;15.07;7.10;;;8.10;99.90;;;;;;5045475;28;20041;-80
2024/01/02 08:45:55;;;;;;;14.03;7.00;;;8.20;99.90;;;;;;5041564;28;20064;-80
2024/01/02 08:48:21;;;;;;;16.30;6.93;;;8.30;99.90;;;;;;5046882;28;20186;-80
2024/01/02 08:50:47;;;;;;;18.70;7.00;;;8.40;99.90;;;;;;5046445;28;20092;-79
2024/01/02 08:53:13;;;;;;;18.87;7.03;;;8.50;99.90;;;;;;5030296;28;20113;-80
2024/01/02 08:55:41;;;;;;;14.20;6.67;;;8.60;99.90;;;;;;5034894;28;20046;-79
2024/01/02 08:58:07;;;;;;;16.23;7.07;;;8.80;99.90;;;;;;5019482;28;20049;-79
2024/01/02 09:00:34;;;;;;;21.40;7.10;;;8.90;99.90;;;;;;5017717;28;20053;-80
2024/01/02 09:03:01;;;;;;;15.77;6.53;;;8.90;99.90;;;;;;5018813;28;20045;-81
2024/01/02 09:05:26;;;;;;;16.60;6.70;;;9.00;99.90;;;;;;5031709;28;20036;-80
2024/01/02 09:07:53;;;;;;;17.50;5.90;;;9.00;99.90;;;;;;5011327;28;20053;-79
2024/01/02 09:10:19;;;;;;;17.30;6.03;;;9.10;99.90;;;;;;5017073;28;20045;-81
2024/01/02 09:12:44;;;;;;;14.70;5.63;;;9.20;99.90;;;;;;5032596;28;20045;-80
2024/01/02 09:15:10;;;;;;;17.67;5.43;;;9.20;99.90;;;;;;5043870;28;20048;-80
2024/01/02 09:17:36;;;;;;;17.17;5.53;;;9.30;99.90;;;;;;5021645;28;20050;-77
2024/01/02 09:20:04;;;;;;;22.73;5.77;;;9.40;99.90;;;;;;5030676;28;20191;-79
2024/01/02 09:22:30;;;;;;;19.03;5.70;;;9.50;99.90;;;;;;5033571;28;20099;-80
2024/01/02 09:24:59;;;;;;;21.80;5.93;;;9.50;99.90;;;;;;5045936;28;20121;-80
2024/01/02 09:27:28;;;;;;;19.80;5.60;;;9.50;99.90;;;;;;5039097;28;20444;-80
2024/01/02 09:29:54;;;;;;;21.53;6.03;;;9.60;99.90;;;;;;5043724;28;20047;-80
2024/01/02 09:32:20;;;;;;;17.43;5.47;;;9.70;99.90;;;;;;5029178;28;20037;-80
2024/01/02 09:34:45;;;;;;;17.93;5.40;;;9.70;99.90;;;;;;5046419;28;20087;-80
2024/01/02 09:37:12;;;;;;;22.03;5.90;;;9.70;99.90;;;;;;5025165;28;20068;-80
2024/01/02 09:39:37;;;;;;;20.33;5.60;;;9.80;99.90;;;;;;5025394;28;20046;-80
2024/01/02 09:42:28;;;;;;;21.27;5.73;;;9.90;99.90;;;;;;5039629;28;20138;-79
2024/01/02 09:45:11;;;;;;;20.77;5.83;;;9.90;99.90;;;;;;5035681;28;20495;-80
2024/01/02 09:48:00;;;;;;;18.87;5.07;;;9.90;99.90;;;;;;5050836;28;20072;-79
2024/01/02 09:50:56;;;;;;;19.87;4.93;;;10.00;99.90;;;;;;4986973;28;20045;-81
2024/01/02 09:53:43;;;;;;;24.10;4.70;;;10.00;99.90;;;;;;5045946;28;20068;-80
2024/01/02 09:56:11;;;;;;;19.87;4.37;;;10.00;99.90;;;;;;5047293;28;20104;-79
2024/01/02 09:58:43;;;;;;;22.07;4.73;;;10.10;99.90;;;;;;5031816;28;20045;-78
2024/01/02 10:01:21;;;;;;;15.48;4.00;;;10.10;99.90;;;;;;5046651;28;20057;-79
2024/01/02 10:04:03;;;;;;;20.63;4.53;;;10.20;99.90;;;;;;5019117;28;20049;-79
2024/01/02 10:07:01;;;;;;;19.58;3.88;;;10.20;99.90;;;;;;5031552;28;20056;-80
2024/01/02 10:09:50;;;;;;;19.20;4.67;;;10.20;99.90;;;;;;5036371;28;20053;-79
2024/01/02 10:12:20;;;;;;;16.80;4.30;;;10.20;99.90;;;;;;5040245;28;20041;-80
2024/01/02 10:15:01;;;;;;;19.60;3.77;;;10.20;99.90;;;;;;5016668;28;20063;-80
2024/01/02 10:18:05;;;;;;;17.87;3.80;;;10.30;99.90;;;;;;5014637;28;20954;-80
2024/01/02 10:20:54;;;;;;;19.33;4.13;;;10.40;99.90;;;;;;5050681;28;20037;-79
2024/01/02 10:23:40;;;;;;;16.77;3.70;;;10.40;99.90;;;;;;5037423;28;20056;-80
2024/01/02 10:26:08;;;;;;;19.30;4.20;;;10.40;99.90;;;;;;5027349;28;20081;-80
2024/01/02 10:28:36;;;;;;;15.93;3.55;;;10.40;99.90;;;;;;5045825;28;20128;-80
2024/01/02 10:31:25;;;;;;;16.95;3.28;;;10.50;99.90;;;;;;5042928;28;20057;-79
2024/01/02 10:34:05;;;;;;;19.63;3.47;;;10.50;99.90;;;;;;5019695;28;20124;-80
2024/01/02 10:36:40;;;;;;;15.90;3.97;;;10.50;99.90;;;;;;5039555;28;20053;-80
2024/01/02 10:39:16;;;;;;;18.77;3.97;;;10.50;99.90;;;;;;5036546;28;20037;-80
2024/01/02 10:42:00;;;;;;;15.02;3.53;;;10.50;99.90;;;;;;5025170;28;20041;-79
2024/01/02 10:44:54;;;;;;;14.77;3.60;;;10.50;99.90;;;;;;5052449;28;20053;-80
2024/01/02 10:47:52;;;;;;;19.70;3.80;;;10.60;99.90;;;;;;4993699;28;20132;-80
2024/01/02 10:50:23;;;;;;;15.37;3.60;;;10.60;99.90;;;;;;5031142;28;20045;-79
2024/01/02 10:53:03;;;;;;;15.50;3.97;;;10.60;99.90;;;;;;5043808;28;20049;-79
2024/01/02 10:55:43;;;;;;;15.50;3.37;;;10.60;99.90;;;;;;5039177;28;20041;-78
2024/01/02 10:58:19;;;;;;;19.55;4.18;;;10.60;99.90;;;;;;5046427;28;20083;-79
2024/01/02 11:01:15;;;;;;;18.43;3.40;;;10.60;99.90;;;;;;5040276;28;20045;-79
2024/01/02 11:03:50;;;;;;;16.80;4.13;;;10.60;99.90;;;;;;5018536;28;20045;-78
2024/01/02 11:06:37;;;;;;;17.45;4.10;;;10.60;99.90;;;;;;5039680;28;20618;-78
2024/01/02 11:09:11;;;;;;;15.85;3.63;;;10.70;99.90;;;;;;5036372;28;20142;-79
2024/01/02 11:11:40;;;;;;;23.17;4.43;;;10.70;99.90;;;;;;5048732;28;20083;-78
2024/01/02 11:14:13;;;;;;;19.67;4.35;;;10.70;99.90;;;;;;5032899;28;20655;-78
2024/01/02 11:16:42;;;;;;;15.20;3.83;;;10.70;99.90;;;;;;5010015;28;20144;-71
2024/01/02 11:19:13;;;;;;;12.45;3.63;;;10.80;99.90;;;;;;5029460;28;20037;-79
2024/01/02 11:21:54;;;;;;;14.85;4.10;;;10.80;99.90;;;;;;5033421;28;20060;-79
2024/01/02 11:24:25;;;;;;;17.88;3.63;;;10.80;99.90;;;;;;5023715;28;20049;-78
2024/01/02 11:26:56;;;;;;;17.90;3.85;;;10.80;99.90;;;;;;5038302;28;20087;-77
2024/01/02 11:29:23;;;;;;;22.27;4.70;;;10.80;99.90;;;;;;5020509;28;20053;-78
2024/01/02 11:31:51;;;;;;;15.45;3.97;;;10.80;99.90;;;;;;5037310;28;20053;-78
2024/01/02 11:34:37;;;;;;;19.63;4.03;;;10.80;99.90;;;;;;5031238;28;20086;-78
2024/01/02 11:37:03;;;;;;;19.45;4.10;;;10.80;99.90;;;;;;5031124;28;20496;-79
2024/01/02 11:39:57;;;;;;;20.05;4.05;;;10.80;99.90;;;;;;5020389;28;20052;-77
2024/01/02 11:42:37;;;;;;;17.42;4.15;;;10.80;99.90;;;;;;5042138;28;20056;-79
2024/01/02 11:45:12;;;;;;;23.23;4.80;;;10.80;99.90;;;;;;5025143;28;20102;-80
2024/01/02 11:47:48;;;;;;;17.75;4.05;;;10.70;99.90;;;;;;5025965;28;20058;-79
2024/01/02 11:50:15;;;;;;;18.42;4.03;;;10.70;99.90;;;;;;5032993;28;20049;-78
2024/01/02 11:52:53;;;;;;;16.48;5.03;;;10.70;99.90;;;;;;5027239;28;20064;-79
2024/01/02 11:55:37;;;;;;;18.67;4.82;;;10.70;99.90;;;;;;5019436;28;20122;-79
2024/01/02 11:58:39;;;;;;;19.67;4.88;;;10.70;99.90;;;;;;5035257;28;20041;-78
2024/01/02 12:01:26;;;;;;;27.15;5.53;;;10.60;99.90;;;;;;5040236;28;20060;-78
2024/01/02 12:03:55;;;;;;;24.98;5.38;;;10.60;99.90;;;;;;5035016;28;20049;-78
2024/01/02 12:06:25;;;;;;;22.73;6.13;;;10.60;99.90;;;;;;5045801;28;20087;-78
2024/01/02 12:09:00;;;;;;;26.92;5.45;;;10.60;99.90;;;;;;5045509;28;20072;-77
2024/01/02 12:11:29;;;;;;;21.23;5.65;;;10.50;99.90;;;;;;5011903;28;20041;-77
2024/01/02 12:14:15;;;;;;;29.30;6.63;;;10.50;99.90;;;;;;5044359;28;20131;-78
2024/01/02 12:16:43;;;;;;;25.70;6.57;;;10.50;99.90;;;;;;5011975;28;20099;-78
2024/01/02 12:19:14;;;;;;;22.25;6.57;;;10.50;99.90;;;;;;5032350;28;20045;-78
2024/01/02 12:21:40;;;;;;;23.30;7.95;;;10.50;99.90;;;;;;5012877;28;20583;-78
2024/01/02 12:24:07;;;;;;;27.30;6.82;;;10.50;99.90;;;;;;5016885;28;20415;-78
2024/01/02 12:26:36;;;;;;;41.30;7.30;;;10.50;99.90;;;;;;5030817;28;20547;-82
2024/01/02 12:29:03;;;;;;;28.03;7.73;;;10.50;99.90;;;;;;5050621;28;20055;-83
2024/01/02 12:31:49;;;;;;;26.83;6.90;;;10.50;99.90;;;;;;5043298;28;20041;-83
2024/01/02 12:34:31;;;;;;;28.50;8.00;;;10.50;99.90;;;;;;5036998;28;20049;-80
2024/01/02 12:37:02;;;;;;;23.02;7.57;;;10.50;99.90;;;;;;5035683;28;20123;-80
2024/01/02 12:39:33;;;;;;;34.30;7.50;;;10.50;99.90;;;;;;5038384;28;20059;-74
2024/01/02 12:42:02;;;;;;;30.30;7.38;;;10.50;99.90;;;;;;5038306;28;20049;-78
2024/01/02 12:44:29;;;;;;;28.85;7.28;;;10.50;99.90;;;;;;5019925;28;20049;-72
2024/01/02 12:47:12;;;;;;;34.17;8.50;;;10.50;99.90;;;;;;5042513;28;20050;-80
2024/01/02 12:49:46;;;;;;;30.40;7.65;;;10.50;99.90;;;;;;5034422;28;20053;-79
2024/01/02 12:52:20;;;;;;;31.65;8.23;;;10.50;99.90;;;;;;5035147;28;20146;-80
2024/01/02 12:54:53;;;;;;;29.45;8.35;;;10.50;99.90;;;;;;5034850;28;20057;-76